createdAt,value
2022-12-06T00:01:28.991Z,86.18
2022-12-06T00:03:58.891Z,87.40
2022-12-06T00:06:29.566Z,86.57
2022-12-06T00:09:00.319Z,86.42
2022-12-06T00:11:29.941Z,87.25
2022-12-06T00:14:00.723Z,86.75
2022-12-06T00:16:31.649Z,87.95
2022-12-06T00:19:01.673Z,88.57
2022-12-06T00:21:30.881Z,86.42
2022-12-06T00:24:00.651Z,86.00
2022-12-06T00:26:29.729Z,86.67
2022-12-06T00:29:00.438Z,90.11
2022-12-06T00:31:29.672Z,87.39
2022-12-06T00:33:57.368Z,86.85
2022-12-06T00:36:26.662Z,86.63
2022-12-06T00:38:56.662Z,86.55
2022-12-06T00:41:25.473Z,86.82
2022-12-06T00:43:53.694Z,87.75
2022-12-06T00:46:24.714Z,87.11
2022-12-06T00:48:53.476Z,88.33
2022-12-06T00:51:22.682Z,88.10
2022-12-06T00:53:50.745Z,87.47
2022-12-06T00:56:19.308Z,87.09
2022-12-06T00:58:46.943Z,89.03
2022-12-06T01:01:16.705Z,95.20
2022-12-06T01:03:46.338Z,94.36
2022-12-06T01:06:16.491Z,93.77
2022-12-06T01:08:44.419Z,93.36
2022-12-06T01:11:14.234Z,92.94
2022-12-06T01:13:41.780Z,90.91
2022-12-06T01:16:11.643Z,93.07
2022-12-06T01:18:39.431Z,90.44
2022-12-06T01:21:09.341Z,89.66
2022-12-06T01:23:37.298Z,91.43
2022-12-06T01:26:05.548Z,89.79
2022-12-06T01:28:33.503Z,89.75
2022-12-06T01:31:01.054Z,89.32
2022-12-06T01:33:28.514Z,89.71
2022-12-06T01:35:55.916Z,88.33
2022-12-06T01:38:24.983Z,87.76
2022-12-06T01:40:52.476Z,86.03
2022-12-06T01:43:42.272Z,87.79
2022-12-06T01:46:22.579Z,88.43
2022-12-06T01:48:54.597Z,89.04
2022-12-06T01:51:22.703Z,86.89
2022-12-06T01:53:54.779Z,86.18
2022-12-06T01:56:22.774Z,86.45
2022-12-06T01:58:53.561Z,86.33
2022-12-06T02:01:21.167Z,86.25
2022-12-06T02:03:49.246Z,87.32
2022-12-06T02:06:17.606Z,86.89
2022-12-06T02:08:45.846Z,86.82
2022-12-06T02:11:14.598Z,85.50
2022-12-06T02:13:42.462Z,87.17
2022-12-06T02:16:23.148Z,85.99
2022-12-06T02:18:57.198Z,84.29
2022-12-06T02:21:35.531Z,84.10
2022-12-06T02:24:36.286Z,85.44
2022-12-06T02:27:27.079Z,85.84
2022-12-06T02:30:08.955Z,86.64
2022-12-06T02:32:49.173Z,85.13
2022-12-06T02:35:30.629Z,85.41
2022-12-06T02:38:06.646Z,86.42
2022-12-06T02:40:39.862Z,86.69
2022-12-06T02:43:12.527Z,85.95
2022-12-06T02:45:44.955Z,86.24
2022-12-06T02:48:15.322Z,86.01
2022-12-06T02:50:47.511Z,86.68
2022-12-06T02:53:22.282Z,86.12
2022-12-06T02:55:52.039Z,87.76
2022-12-06T02:58:19.494Z,86.89
2022-12-06T03:00:47.863Z,85.44
2022-12-06T03:03:29.235Z,85.72
2022-12-06T03:06:16.220Z,90.45
2022-12-06T03:08:54.210Z,87.39
2022-12-06T03:11:22.325Z,88.72
2022-12-06T03:13:59.556Z,86.19
2022-12-06T03:16:30.143Z,87.88
2022-12-06T03:19:01.916Z,86.49
2022-12-06T03:21:33.530Z,85.88
2022-12-06T03:24:01.422Z,86.59
2022-12-06T03:26:33.147Z,87.58
2022-12-06T03:29:02.561Z,85.60
2022-12-06T03:31:33.233Z,85.77
2022-12-06T03:34:07.576Z,84.43
2022-12-06T03:36:35.614Z,85.68
2022-12-06T03:39:05.978Z,86.17
2022-12-06T03:41:38.932Z,85.34
2022-12-06T03:44:06.426Z,86.15
2022-12-06T03:46:37.614Z,86.52
2022-12-06T03:49:12.435Z,86.82
2022-12-06T03:51:41.818Z,85.60
2022-12-06T03:54:10.221Z,85.64
2022-12-06T03:56:38.712Z,85.26
2022-12-06T03:59:07.269Z,85.16
2022-12-06T04:01:34.961Z,85.51
2022-12-06T04:04:02.710Z,84.89
2022-12-06T04:06:31.694Z,84.35
2022-12-06T04:09:19.779Z,84.30
2022-12-06T04:11:47.504Z,85.79
2022-12-06T04:14:15.517Z,87.07
2022-12-06T04:17:00.317Z,86.95
2022-12-06T04:19:27.952Z,86.71
2022-12-06T04:22:14.583Z,87.28
2022-12-06T04:24:42.249Z,85.73
2022-12-06T04:27:27.380Z,86.39
2022-12-06T04:30:12.527Z,85.87
2022-12-06T04:32:57.435Z,85.97
2022-12-06T04:35:42.207Z,85.29
2022-12-06T04:38:28.829Z,85.41
2022-12-06T04:40:56.225Z,85.90
2022-12-06T04:43:41.021Z,85.22
2022-12-06T04:46:08.633Z,85.17
2022-12-06T04:48:36.043Z,85.07
2022-12-06T04:51:03.548Z,88.24
2022-12-06T04:53:32.491Z,86.93
2022-12-06T04:55:59.905Z,86.22
2022-12-06T04:58:27.704Z,85.98
2022-12-06T05:00:56.048Z,84.63
2022-12-06T05:03:23.522Z,86.04
2022-12-06T05:05:50.944Z,85.74
2022-12-06T05:08:18.444Z,86.21
2022-12-06T05:10:49.494Z,87.22
2022-12-06T05:13:18.112Z,87.46
2022-12-06T05:15:51.374Z,87.42
2022-12-06T05:18:19.401Z,87.32
2022-12-06T05:20:47.006Z,88.54
2022-12-06T05:23:14.793Z,87.23
2022-12-06T05:25:42.481Z,87.61
2022-12-06T05:28:11.597Z,87.27
2022-12-06T05:30:39.062Z,86.17
2022-12-06T05:33:06.477Z,89.57
2022-12-06T05:35:33.863Z,89.61
2022-12-06T05:38:01.306Z,90.67
2022-12-06T05:40:28.695Z,88.71
2022-12-06T05:42:56.083Z,91.38
2022-12-06T05:45:24.856Z,91.01
2022-12-06T05:47:52.261Z,93.49
2022-12-06T05:50:19.626Z,92.12
2022-12-06T05:52:47.426Z,93.06
2022-12-06T05:55:14.855Z,94.47
2022-12-06T05:57:47.119Z,95.14
2022-12-06T06:00:16.210Z,93.74
2022-12-06T06:02:45.138Z,92.55
2022-12-06T06:05:12.875Z,91.43
2022-12-06T06:07:40.327Z,92.65
2022-12-06T06:10:08.787Z,91.68
2022-12-06T06:12:36.265Z,92.29
2022-12-06T06:15:07.031Z,92.26
2022-12-06T06:17:35.114Z,91.23
2022-12-06T06:20:06.193Z,92.09
2022-12-06T06:22:34.640Z,88.16
2022-12-06T06:25:02.705Z,86.73
2022-12-06T06:27:33.558Z,86.16
2022-12-06T06:30:01.282Z,85.64
2022-12-06T06:32:28.952Z,85.46
2022-12-06T06:34:56.341Z,86.33
2022-12-06T06:37:25.086Z,85.66
2022-12-06T06:39:52.515Z,85.88
2022-12-06T06:42:20.084Z,84.57
2022-12-06T06:44:47.531Z,84.57
2022-12-06T06:47:15.012Z,83.15
2022-12-06T06:49:42.432Z,83.62
2022-12-06T06:52:09.833Z,83.30
2022-12-06T06:54:38.668Z,84.01
2022-12-06T06:57:06.309Z,83.59
2022-12-06T06:59:34.003Z,84.01
2022-12-06T07:02:01.612Z,84.25
2022-12-06T07:04:29.497Z,83.15
2022-12-06T07:06:56.889Z,84.84
2022-12-06T07:09:24.265Z,85.52
2022-12-06T07:11:54.570Z,85.79
2022-12-06T07:14:22.077Z,84.06
2022-12-06T07:16:49.525Z,83.76
2022-12-06T07:19:17.128Z,84.67
2022-12-06T07:21:44.495Z,84.53
2022-12-06T07:24:11.893Z,83.45
2022-12-06T07:26:39.532Z,83.96
2022-12-06T07:29:08.390Z,84.81
2022-12-06T07:31:35.914Z,84.75
2022-12-06T07:34:04.039Z,84.57
2022-12-06T07:36:33.225Z,84.56
2022-12-06T07:39:01.524Z,84.50
2022-12-06T07:41:48.527Z,83.10
2022-12-06T07:44:36.058Z,83.69
2022-12-06T07:47:04.183Z,83.29
2022-12-06T07:49:32.077Z,83.74
2022-12-06T07:51:59.530Z,83.61
2022-12-06T07:54:27.270Z,83.65
2022-12-06T07:56:56.166Z,85.22
2022-12-06T07:59:25.973Z,84.57
2022-12-06T08:01:54.295Z,84.66
2022-12-06T08:04:22.762Z,83.42
2022-12-06T08:06:50.433Z,83.70
2022-12-06T08:09:18.889Z,84.11
2022-12-06T08:11:46.389Z,83.39
2022-12-06T08:14:16.064Z,84.66
2022-12-06T08:16:44.786Z,86.38
2022-12-06T08:19:12.169Z,85.27
2022-12-06T08:21:39.727Z,85.45
2022-12-06T08:24:07.535Z,85.25
2022-12-06T08:26:35.593Z,84.82
2022-12-06T08:29:03.526Z,83.44
2022-12-06T08:31:34.642Z,82.84
2022-12-06T08:34:04.544Z,83.39
2022-12-06T08:36:32.215Z,82.71
2022-12-06T08:39:00.771Z,84.96
2022-12-06T08:41:45.770Z,84.62
2022-12-06T08:44:15.353Z,84.86
2022-12-06T08:46:43.275Z,83.97
2022-12-06T08:49:13.597Z,83.94
2022-12-06T08:51:44.519Z,83.65
2022-12-06T08:54:15.023Z,83.94
2022-12-06T08:56:42.461Z,83.51
2022-12-06T08:59:10.008Z,84.32
2022-12-06T09:01:38.620Z,85.36
2022-12-06T09:04:09.553Z,84.05
2022-12-06T09:06:40.520Z,85.05
2022-12-06T09:09:09.561Z,86.17
2022-12-06T09:11:37.414Z,84.65
2022-12-06T09:14:05.402Z,84.41
2022-12-06T09:16:32.895Z,86.70
2022-12-06T09:19:00.349Z,85.86
2022-12-06T09:21:30.444Z,87.22
2022-12-06T09:23:59.522Z,88.19
2022-12-06T09:26:27.817Z,87.56
2022-12-06T09:28:56.794Z,85.26
2022-12-06T09:31:25.268Z,87.71
2022-12-06T09:33:53.511Z,88.07
2022-12-06T09:36:23.473Z,86.57
2022-12-06T09:38:55.530Z,88.75
2022-12-06T09:41:44.130Z,90.77
2022-12-06T09:44:28.829Z,91.52
2022-12-06T09:47:10.459Z,90.22
2022-12-06T09:49:48.247Z,90.91
2022-12-06T09:52:33.404Z,91.27
2022-12-06T09:55:19.878Z,89.15
2022-12-06T09:57:56.027Z,89.36
2022-12-06T10:00:24.724Z,89.01
2022-12-06T10:03:26.916Z,88.80
2022-12-06T10:06:02.754Z,90.55
2022-12-06T10:08:44.699Z,92.21
2022-12-06T10:11:22.558Z,92.08
2022-12-06T10:14:03.450Z,92.63
2022-12-06T10:16:45.727Z,90.65
2022-12-06T10:19:24.398Z,91.43
2022-12-06T10:22:05.892Z,92.17
2022-12-06T10:24:49.628Z,90.56
2022-12-06T10:27:23.693Z,89.99
2022-12-06T10:29:58.012Z,87.00
2022-12-06T10:32:40.076Z,89.67
2022-12-06T10:35:17.573Z,89.54
2022-12-06T10:37:58.008Z,90.34
2022-12-06T10:40:30.415Z,89.92
2022-12-06T10:43:04.478Z,93.23
2022-12-06T10:45:55.567Z,95.57
2022-12-06T10:48:30.156Z,92.09
2022-12-06T10:51:04.252Z,92.13
2022-12-06T10:53:38.790Z,93.78
2022-12-06T10:56:14.618Z,95.20
2022-12-06T10:58:46.448Z,92.93
2022-12-06T11:01:20.245Z,94.96
2022-12-06T11:03:56.643Z,96.46
2022-12-06T11:06:33.162Z,95.42
2022-12-06T11:09:06.531Z,92.32
2022-12-06T11:11:37.741Z,93.13
2022-12-06T11:14:12.395Z,92.29
2022-12-06T11:16:45.973Z,89.84
2022-12-06T11:19:23.820Z,91.83
2022-12-06T11:21:57.916Z,91.39
2022-12-06T11:24:29.898Z,90.23
2022-12-06T11:27:02.527Z,93.33
2022-12-06T11:29:31.047Z,90.89
2022-12-06T11:32:02.849Z,89.65
2022-12-06T11:34:33.755Z,89.59
2022-12-06T11:37:03.716Z,89.36
2022-12-06T11:39:32.464Z,86.90
2022-12-06T11:42:04.316Z,86.44
2022-12-06T11:44:44.932Z,88.58
2022-12-06T11:47:19.896Z,87.05
2022-12-06T11:49:48.272Z,85.12
2022-12-06T11:52:19.020Z,86.63
2022-12-06T11:54:52.669Z,85.76
2022-12-06T11:57:23.701Z,84.41
2022-12-06T12:00:11.931Z,85.37
2022-12-06T12:02:41.738Z,86.28
2022-12-06T12:05:11.017Z,89.31
2022-12-06T12:07:42.251Z,87.75
2022-12-06T12:10:31.541Z,90.70
2022-12-06T12:13:33.455Z,87.28
2022-12-06T12:16:06.715Z,85.12
2022-12-06T12:18:37.811Z,84.40
2022-12-06T12:21:08.171Z,84.67
2022-12-06T12:23:38.330Z,86.54
2022-12-06T12:26:13.450Z,85.87
2022-12-06T12:28:41.537Z,87.23
2022-12-06T12:31:19.522Z,87.23
2022-12-06T12:33:48.774Z,87.46
2022-12-06T12:36:21.621Z,88.13
2022-12-06T12:38:56.655Z,86.42
2022-12-06T12:41:30.130Z,84.64
2022-12-06T12:44:35.931Z,87.08
2022-12-06T12:46:53.240Z,88.30
2022-12-06T12:49:29.416Z,88.97
2022-12-06T12:51:57.667Z,89.35
2022-12-06T12:54:29.401Z,87.12
2022-12-06T12:56:58.190Z,90.08
2022-12-06T12:59:28.327Z,92.53
2022-12-06T13:02:02.840Z,89.71
2022-12-06T13:04:42.249Z,92.04
2022-12-06T13:07:18.158Z,92.23
2022-12-06T13:09:52.570Z,91.82
2022-12-06T13:12:24.706Z,91.67
2022-12-06T13:14:58.508Z,89.06
2022-12-06T13:17:28.293Z,89.39
2022-12-06T13:19:57.124Z,90.45
2022-12-06T13:22:27.833Z,92.76
2022-12-06T13:25:01.618Z,92.17
2022-12-06T13:27:33.555Z,91.90
2022-12-06T13:30:05.499Z,89.30
2022-12-06T13:32:38.620Z,88.83
2022-12-06T13:35:19.032Z,91.10
2022-12-06T13:37:52.483Z,90.74
2022-12-06T13:40:49.069Z,90.18
2022-12-06T13:43:56.733Z,87.59
2022-12-06T13:46:27.483Z,90.98
2022-12-06T13:48:56.700Z,88.96
2022-12-06T13:51:45.870Z,89.29
2022-12-06T13:54:37.410Z,91.58
2022-12-06T13:57:25.331Z,92.32
2022-12-06T13:59:53.549Z,91.10
2022-12-06T14:02:51.283Z,93.18
2022-12-06T14:08:30.855Z,90.54
2022-12-06T14:11:17.859Z,92.10
2022-12-06T14:13:47.342Z,89.87
2022-12-06T14:16:22.773Z,90.14
2022-12-06T14:18:51.331Z,90.52
2022-12-06T14:21:27.203Z,92.82
2022-12-06T14:23:56.027Z,92.83
2022-12-06T14:26:26.362Z,95.04
2022-12-06T14:28:56.381Z,94.83
2022-12-06T14:31:27.490Z,93.99
2022-12-06T14:33:56.397Z,92.14
2022-12-06T14:36:27.582Z,90.62
2022-12-06T14:39:01.310Z,94.63
2022-12-06T14:41:52.660Z,93.87
2022-12-06T14:44:21.672Z,94.77
2022-12-06T14:46:50.467Z,93.30
2022-12-06T14:49:38.412Z,95.05
2022-12-06T14:52:20.098Z,97.52
2022-12-06T14:54:51.876Z,98.49
2022-12-06T14:57:24.872Z,95.37
2022-12-06T15:00:16.212Z,97.16
2022-12-06T15:03:07.203Z,98.57
2022-12-06T15:05:36.979Z,96.44
2022-12-06T15:08:32.174Z,99.06
2022-12-06T15:11:02.841Z,98.31
2022-12-06T15:13:30.042Z,99.09
2022-12-06T15:16:12.623Z,99.15
2022-12-06T15:18:41.810Z,100.00
2022-12-06T15:21:12.776Z,98.57
2022-12-06T15:23:43.068Z,97.49
2022-12-06T15:26:13.187Z,96.61
2022-12-06T15:28:40.946Z,93.75
2022-12-06T15:31:16.987Z,92.48
2022-12-06T15:33:44.911Z,95.96
2022-12-06T15:36:17.131Z,95.95
2022-12-06T15:38:44.868Z,96.26
2022-12-06T15:41:17.778Z,95.01
2022-12-06T15:43:46.078Z,97.17
2022-12-06T15:46:19.286Z,97.29
2022-12-06T15:48:47.102Z,98.49
2022-12-06T15:51:20.390Z,98.64
2022-12-06T15:53:49.909Z,98.33
2022-12-06T15:56:20.686Z,97.65
2022-12-06T15:58:48.528Z,98.89
2022-12-06T16:01:18.421Z,97.35
2022-12-06T16:03:47.276Z,97.58
2022-12-06T16:06:16.221Z,97.49
2022-12-06T16:08:44.262Z,99.79
2022-12-06T16:11:13.986Z,99.68
2022-12-06T16:13:42.929Z,98.08
2022-12-06T16:16:11.320Z,98.47
2022-12-06T16:18:38.954Z,100.00
2022-12-06T16:21:07.027Z,100.00
2022-12-06T16:26:41.793Z,96.45
2022-12-06T16:29:13.721Z,94.88
2022-12-06T16:31:41.881Z,94.22
2022-12-06T16:34:10.101Z,95.54
2022-12-06T16:36:55.587Z,94.74
2022-12-06T16:39:23.139Z,95.51
2022-12-06T16:41:50.576Z,96.89
2022-12-06T16:44:19.370Z,96.27
2022-12-06T16:46:46.866Z,99.92
2022-12-06T16:49:44.683Z,98.42
2022-12-06T16:52:05.310Z,98.37
2022-12-06T16:54:32.767Z,100.00
2022-12-06T16:57:00.283Z,99.78
2022-12-06T16:59:29.055Z,100.00
2022-12-06T17:01:56.663Z,100.00
2022-12-06T17:04:25.989Z,100.00
2022-12-06T17:06:53.395Z,100.00
2022-12-06T17:09:20.789Z,100.00
2022-12-06T17:12:02.231Z,100.00
2022-12-06T17:14:31.215Z,100.00
2022-12-06T17:17:03.627Z,100.00
2022-12-06T17:19:32.113Z,99.03
2022-12-06T17:22:02.006Z,99.09
2022-12-06T17:24:29.738Z,100.00
2022-12-06T17:26:58.942Z,100.00
2022-12-06T17:29:26.819Z,100.00
2022-12-06T17:31:56.293Z,100.00
2022-12-06T17:34:25.750Z,100.00
2022-12-06T17:36:53.933Z,99.77
2022-12-06T17:39:22.216Z,99.98
2022-12-06T17:42:07.495Z,100.00
2022-12-06T17:44:35.212Z,100.00
2022-12-06T17:47:04.019Z,100.00
2022-12-06T17:49:31.477Z,100.00
2022-12-06T17:51:59.044Z,100.00
2022-12-06T17:54:26.448Z,100.00
2022-12-06T17:56:55.883Z,100.00
2022-12-06T17:59:25.743Z,100.00
2022-12-06T18:04:44.322Z,100.00
2022-12-06T18:07:12.608Z,100.00
2022-12-06T18:09:40.535Z,100.00
2022-12-06T18:12:11.993Z,100.00
2022-12-06T18:14:39.498Z,100.00
2022-12-06T18:17:07.035Z,100.00
2022-12-06T18:19:34.942Z,100.00
2022-12-06T18:22:03.760Z,100.00
2022-12-06T18:24:35.951Z,100.00
2022-12-06T18:27:04.655Z,100.00
2022-12-06T18:29:32.310Z,100.00
2022-12-06T18:31:59.944Z,100.00
2022-12-06T18:34:27.473Z,100.00
2022-12-06T18:36:54.896Z,100.00
2022-12-06T18:39:25.221Z,99.56
2022-12-06T18:41:53.838Z,99.74
2022-12-06T18:44:21.671Z,98.40
2022-12-06T18:46:49.105Z,98.58
2022-12-06T18:49:16.586Z,100.00
2022-12-06T18:51:44.036Z,99.74
2022-12-06T18:54:14.643Z,98.71
2022-12-06T18:56:43.803Z,100.00
2022-12-06T18:59:12.060Z,100.00
2022-12-06T19:01:40.765Z,99.47
2022-12-06T19:04:11.429Z,100.00
2022-12-06T19:06:39.260Z,100.00
2022-12-06T19:09:12.505Z,98.42
2022-12-06T19:11:44.429Z,98.68
2022-12-06T19:14:11.907Z,100.00
2022-12-06T19:16:42.100Z,100.00
2022-12-06T19:19:16.481Z,100.00
2022-12-06T19:21:45.214Z,100.00
2022-12-06T19:24:15.503Z,100.00
2022-12-06T19:26:45.408Z,100.00
2022-12-06T19:29:13.704Z,100.00
2022-12-06T19:31:41.265Z,99.50
2022-12-06T19:34:15.081Z,97.57
2022-12-06T19:36:42.627Z,99.50
2022-12-06T19:39:11.761Z,100.00
2022-12-06T19:41:59.233Z,100.00
2022-12-06T19:44:27.320Z,100.00
2022-12-06T19:46:54.771Z,100.00
2022-12-06T19:49:24.204Z,100.00
2022-12-06T19:51:52.972Z,99.67
2022-12-06T19:54:22.997Z,100.00
2022-12-06T19:56:51.177Z,100.00
2022-12-06T19:59:18.613Z,99.64
2022-12-06T20:01:48.729Z,100.00
2022-12-06T20:04:19.803Z,100.00
2022-12-06T20:06:47.499Z,99.73
2022-12-06T20:09:15.522Z,100.00
2022-12-06T20:12:02.251Z,100.00
2022-12-06T20:14:33.524Z,100.00
2022-12-06T20:17:02.722Z,91.64
2022-12-06T20:19:30.312Z,86.36
2022-12-06T20:21:57.759Z,86.92
2022-12-06T20:24:25.214Z,85.15
2022-12-06T20:26:54.163Z,85.47
2022-12-06T20:29:22.571Z,85.44
2022-12-06T20:31:51.237Z,84.42
2022-12-06T20:34:22.376Z,84.63
2022-12-06T20:36:49.816Z,78.08
2022-12-06T20:39:23.300Z,81.04
2022-12-06T20:41:51.747Z,79.56
2022-12-06T20:44:20.130Z,76.17
2022-12-06T20:46:49.535Z,83.32
2022-12-06T20:49:19.623Z,86.88
2022-12-06T20:51:52.925Z,92.34
2022-12-06T20:54:21.367Z,93.54
2022-12-06T20:56:51.590Z,95.05
2022-12-06T20:59:21.267Z,94.47
2022-12-06T21:01:48.850Z,97.53
2022-12-06T21:04:16.798Z,97.57
2022-12-06T21:06:44.391Z,97.26
2022-12-06T21:09:13.210Z,98.15
2022-12-06T21:11:40.718Z,99.23
2022-12-06T21:14:08.097Z,99.10
2022-12-06T21:16:38.077Z,98.21
2022-12-06T21:19:07.518Z,98.51
2022-12-06T21:21:36.873Z,100.00
2022-12-06T21:24:07.221Z,100.00
2022-12-06T21:26:36.933Z,98.20
2022-12-06T21:29:04.760Z,99.72
2022-12-06T21:31:34.532Z,98.24
2022-12-06T21:34:03.235Z,97.81
2022-12-06T21:36:31.214Z,97.09
2022-12-06T21:38:59.405Z,96.36
2022-12-06T21:41:27.341Z,95.15
2022-12-06T21:43:56.290Z,94.64
2022-12-06T21:46:25.194Z,91.88
2022-12-06T21:48:53.629Z,93.78
2022-12-06T21:51:21.304Z,93.27
2022-12-06T21:53:48.809Z,91.95
2022-12-06T21:56:18.929Z,93.57
2022-12-06T21:58:46.699Z,94.10
2022-12-06T22:01:18.193Z,97.53
2022-12-06T22:03:48.395Z,95.66
2022-12-06T22:06:16.191Z,95.19
2022-12-06T22:08:45.134Z,95.29
2022-12-06T22:11:16.945Z,95.46
2022-12-06T22:13:45.537Z,96.04
2022-12-06T22:16:14.930Z,96.45
2022-12-06T22:18:45.963Z,96.54
2022-12-06T22:21:16.076Z,97.51
2022-12-06T22:23:43.753Z,97.18
2022-12-06T22:26:15.257Z,97.47
2022-12-06T22:28:42.797Z,99.09
2022-12-06T22:31:11.659Z,97.89
2022-12-06T22:33:40.979Z,97.60
2022-12-06T22:36:09.460Z,98.05
2022-12-06T22:38:37.446Z,98.95
2022-12-06T22:41:05.546Z,100.00
2022-12-06T22:43:33.862Z,100.00
2022-12-06T22:46:04.803Z,100.00
2022-12-06T22:48:32.239Z,100.00
2022-12-06T22:51:13.294Z,99.71
2022-12-06T22:53:41.828Z,100.00
2022-12-06T22:56:10.172Z,100.00
2022-12-06T22:58:38.436Z,98.17
2022-12-06T23:01:16.095Z,96.70
2022-12-06T23:03:44.969Z,98.49
2022-12-06T23:06:14.657Z,99.03
2022-12-06T23:08:42.916Z,99.59
2022-12-06T23:11:12.903Z,100.00
2022-12-06T23:13:41.020Z,97.13
2022-12-06T23:16:11.685Z,96.56
2022-12-06T23:18:39.182Z,94.71
2022-12-06T23:21:09.134Z,96.86
2022-12-06T23:23:39.159Z,98.11
2022-12-06T23:26:08.759Z,98.86
2022-12-06T23:28:36.859Z,99.98
2022-12-06T23:31:05.568Z,99.03
2022-12-06T23:33:33.466Z,100.00
2022-12-06T23:36:06.297Z,98.59
2022-12-06T23:38:33.778Z,95.58
2022-12-06T23:41:07.502Z,96.37
2022-12-06T23:43:44.887Z,95.10
2022-12-06T23:46:27.405Z,94.70
2022-12-06T23:49:10.700Z,92.89
2022-12-06T23:52:21.369Z,94.74
2022-12-06T23:55:06.996Z,95.74
2022-12-06T23:58:16.956Z,96.64
